sensor_id;sensor_type;location;lat;lon;timestamp;temperature;humidity
62991;DHT22;49084;48.204;16.202;2024-01-30T00:02:16;-0.20;99.90
62991;DHT22;49084;48.204;16.202;2024-01-30T00:04:42;-0.30;99.90
62991;DHT22;49084;48.204;16.202;2024-01-30T00:07:07;-0.30;99.90
62991;DHT22;49084;48.204;16.202;2024-01-30T00:09:33;-0.40;99.90
62991;DHT22;49084;48.204;16.202;2024-01-30T00:11:59;-0.40;99.90
62991;DHT22;49084;48.204;16.202;2024-01-30T00:14:24;-0.50;99.90
62991;DHT22;49084;48.204;16.202;2024-01-30T00:16:53;-0.40;99.90
62991;DHT22;49084;48.204;16.202;2024-01-30T00:19:19;-0.30;99.90
62991;DHT22;49084;48.204;16.202;2024-01-30T00:21:44;-0.40;99.90
62991;DHT22;49084;48.204;16.202;2024-01-30T00:24:10;-0.30;99.90
62991;DHT22;49084;48.204;16.202;2024-01-30T00:26:36;-0.50;99.90
62991;DHT22;49084;48.204;16.202;2024-01-30T00:29:01;-0.40;99.90
62991;DHT22;49084;48.204;16.202;2024-01-30T00:31:27;-0.50;99.90
62991;DHT22;49084;48.204;16.202;2024-01-30T00:33:53;-0.50;99.90
62991;DHT22;49084;48.204;16.202;2024-01-30T00:36:18;-0.60;99.90
62991;DHT22;49084;48.204;16.202;2024-01-30T00:38:44;-0.60;99.90
62991;DHT22;49084;48.204;16.202;2024-01-30T00:41:10;-0.60;99.90
62991;DHT22;49084;48.204;16.202;2024-01-30T00:43:36;-0.50;99.90
62991;DHT22;49084;48.204;16.202;2024-01-30T00:46:02;-0.50;99.90
62991;DHT22;49084;48.204;16.202;2024-01-30T00:48:27;-0.50;99.90
62991;DHT22;49084;48.204;16.202;2024-01-30T00:50:53;-0.50;99.90
62991;DHT22;49084;48.204;16.202;2024-01-30T00:53:18;-0.60;99.90
62991;DHT22;49084;48.204;16.202;2024-01-30T00:55:44;-0.70;99.90
62991;DHT22;49084;48.204;16.202;2024-01-30T00:58:10;-0.50;99.90
62991;DHT22;49084;48.204;16.202;2024-01-30T01:00:35;-0.50;99.90
62991;DHT22;49084;48.204;16.202;2024-01-30T01:03:01;-0.60;99.90
62991;DHT22;49084;48.204;16.202;2024-01-30T01:05:27;-0.50;99.90
62991;DHT22;49084;48.204;16.202;2024-01-30T01:07:53;-0.50;99.90
62991;DHT22;49084;48.204;16.202;2024-01-30T01:10:18;-0.50;99.90
62991;DHT22;49084;48.204;16.202;2024-01-30T01:12:45;-0.50;99.90
62991;DHT22;49084;48.204;16.202;2024-01-30T01:15:11;-0.60;99.90
62991;DHT22;49084;48.204;16.202;2024-01-30T01:17:37;-0.60;99.90
62991;DHT22;49084;48.204;16.202;2024-01-30T01:20:04;-0.60;99.90
62991;DHT22;49084;48.204;16.202;2024-01-30T01:22:34;-0.60;99.90
62991;DHT22;49084;48.204;16.202;2024-01-30T01:25:00;-0.60;99.90
62991;DHT22;49084;48.204;16.202;2024-01-30T01:27:26;-0.60;99.90
62991;DHT22;49084;48.204;16.202;2024-01-30T01:29:52;-0.60;99.90
62991;DHT22;49084;48.204;16.202;2024-01-30T01:32:18;-0.60;99.90
62991;DHT22;49084;48.204;16.202;2024-01-30T01:34:44;-0.60;99.90
62991;DHT22;49084;48.204;16.202;2024-01-30T01:37:09;-0.60;99.90
62991;DHT22;49084;48.204;16.202;2024-01-30T01:39:35;-0.60;99.90
62991;DHT22;49084;48.204;16.202;2024-01-30T01:42:01;-0.60;99.90
62991;DHT22;49084;48.204;16.202;2024-01-30T01:44:27;-0.60;99.90
62991;DHT22;49084;48.204;16.202;2024-01-30T01:46:54;-0.60;99.90
62991;DHT22;49084;48.204;16.202;2024-01-30T01:49:20;-0.60;99.90
62991;DHT22;49084;48.204;16.202;2024-01-30T01:51:48;-0.60;99.90
62991;DHT22;49084;48.204;16.202;2024-01-30T01:54:14;-0.60;99.90
62991;DHT22;49084;48.204;16.202;2024-01-30T01:56:42;-0.50;99.90
62991;DHT22;49084;48.204;16.202;2024-01-30T01:59:08;-0.70;99.90
62991;DHT22;49084;48.204;16.202;2024-01-30T02:01:37;-0.50;99.90
62991;DHT22;49084;48.204;16.202;2024-01-30T02:04:04;-0.60;99.90
62991;DHT22;49084;48.204;16.202;2024-01-30T02:06:29;-0.60;99.90
62991;DHT22;49084;48.204;16.202;2024-01-30T02:08:55;-0.60;99.90
62991;DHT22;49084;48.204;16.202;2024-01-30T02:11:22;-0.40;99.90
62991;DHT22;49084;48.204;16.202;2024-01-30T02:13:48;-0.60;99.90
62991;DHT22;49084;48.204;16.202;2024-01-30T02:16:14;-0.50;99.90
62991;DHT22;49084;48.204;16.202;2024-01-30T02:18:40;-0.60;99.90
62991;DHT22;49084;48.204;16.202;2024-01-30T02:21:11;-0.60;99.90
62991;DHT22;49084;48.204;16.202;2024-01-30T02:23:37;-0.60;99.90
62991;DHT22;49084;48.204;16.202;2024-01-30T02:26:04;-0.60;99.90
62991;DHT22;49084;48.204;16.202;2024-01-30T02:28:30;-0.60;99.90
62991;DHT22;49084;48.204;16.202;2024-01-30T02:30:56;-0.30;99.90
62991;DHT22;49084;48.204;16.202;2024-01-30T02:33:21;-0.50;99.90
62991;DHT22;49084;48.204;16.202;2024-01-30T02:35:48;-0.50;99.90
62991;DHT22;49084;48.204;16.202;2024-01-30T02:38:15;-0.50;99.90
62991;DHT22;49084;48.204;16.202;2024-01-30T02:40:41;-0.50;99.90
62991;DHT22;49084;48.204;16.202;2024-01-30T02:43:07;-0.60;99.90
62991;DHT22;49084;48.204;16.202;2024-01-30T02:45:32;-0.60;99.90
62991;DHT22;49084;48.204;16.202;2024-01-30T02:47:58;-0.60;99.90
62991;DHT22;49084;48.204;16.202;2024-01-30T02:50:23;-0.60;99.90
62991;DHT22;49084;48.204;16.202;2024-01-30T02:52:49;-0.70;99.90
62991;DHT22;49084;48.204;16.202;2024-01-30T02:55:15;-0.60;99.90
62991;DHT22;49084;48.204;16.202;2024-01-30T02:57:43;-0.60;99.90
62991;DHT22;49084;48.204;16.202;2024-01-30T03:00:09;-0.60;99.90
62991;DHT22;49084;48.204;16.202;2024-01-30T03:02:36;-0.60;99.90
62991;DHT22;49084;48.204;16.202;2024-01-30T03:05:02;-0.50;99.90
62991;DHT22;49084;48.204;16.202;2024-01-30T03:07:29;-0.60;99.90
62991;DHT22;49084;48.204;16.202;2024-01-30T03:09:54;-0.60;99.90
62991;DHT22;49084;48.204;16.202;2024-01-30T03:12:21;-0.60;99.90
62991;DHT22;49084;48.204;16.202;2024-01-30T03:14:47;-0.60;99.90
62991;DHT22;49084;48.204;16.202;2024-01-30T03:17:13;-0.60;99.90
62991;DHT22;49084;48.204;16.202;2024-01-30T03:19:38;-0.50;99.90
62991;DHT22;49084;48.204;16.202;2024-01-30T03:22:04;-0.60;99.90
62991;DHT22;49084;48.204;16.202;2024-01-30T03:24:30;-0.10;99.90
62991;DHT22;49084;48.204;16.202;2024-01-30T03:26:56;-0.70;99.90
62991;DHT22;49084;48.204;16.202;2024-01-30T03:29:21;-0.70;99.90
62991;DHT22;49084;48.204;16.202;2024-01-30T03:31:47;-0.60;99.90
62991;DHT22;49084;48.204;16.202;2024-01-30T03:34:13;-0.60;99.90
62991;DHT22;49084;48.204;16.202;2024-01-30T03:36:39;-0.60;99.90
62991;DHT22;49084;48.204;16.202;2024-01-30T03:39:04;-0.60;99.90
62991;DHT22;49084;48.204;16.202;2024-01-30T03:41:30;-0.60;99.90
62991;DHT22;49084;48.204;16.202;2024-01-30T03:43:56;-0.30;99.90
62991;DHT22;49084;48.204;16.202;2024-01-30T03:46:21;-0.50;99.90
62991;DHT22;49084;48.204;16.202;2024-01-30T03:48:47;-0.60;99.90
62991;DHT22;49084;48.204;16.202;2024-01-30T03:51:12;-0.60;99.90
62991;DHT22;49084;48.204;16.202;2024-01-30T03:53:44;-0.60;99.90
62991;DHT22;49084;48.204;16.202;2024-01-30T03:56:12;-0.60;99.90
62991;DHT22;49084;48.204;16.202;2024-01-30T03:58:39;-0.70;99.90
62991;DHT22;49084;48.204;16.202;2024-01-30T04:01:05;-0.60;99.90
62991;DHT22;49084;48.204;16.202;2024-01-30T04:03:30;-0.70;99.90
62991;DHT22;49084;48.204;16.202;2024-01-30T04:05:56;-0.50;99.90
62991;DHT22;49084;48.204;16.202;2024-01-30T04:08:22;-0.70;99.90
62991;DHT22;49084;48.204;16.202;2024-01-30T04:10:47;-0.80;99.90
62991;DHT22;49084;48.204;16.202;2024-01-30T04:13:13;-0.70;99.90
62991;DHT22;49084;48.204;16.202;2024-01-30T04:15:39;-0.30;99.90
62991;DHT22;49084;48.204;16.202;2024-01-30T04:18:05;-0.70;99.90
62991;DHT22;49084;48.204;16.202;2024-01-30T04:20:31;-0.60;99.90
62991;DHT22;49084;48.204;16.202;2024-01-30T04:22:56;-0.60;99.90
62991;DHT22;49084;48.204;16.202;2024-01-30T04:25:22;-0.70;99.90
62991;DHT22;49084;48.204;16.202;2024-01-30T04:27:48;-0.70;99.90
62991;DHT22;49084;48.204;16.202;2024-01-30T04:30:14;-0.70;99.90
62991;DHT22;49084;48.204;16.202;2024-01-30T04:32:39;-0.70;99.90
62991;DHT22;49084;48.204;16.202;2024-01-30T04:35:05;-0.70;99.90
62991;DHT22;49084;48.204;16.202;2024-01-30T04:37:31;-0.70;99.90
62991;DHT22;49084;48.204;16.202;2024-01-30T04:39:57;-0.70;99.90
62991;DHT22;49084;48.204;16.202;2024-01-30T04:42:22;-0.80;99.90
62991;DHT22;49084;48.204;16.202;2024-01-30T04:44:49;-0.80;99.90
62991;DHT22;49084;48.204;16.202;2024-01-30T04:47:14;-0.70;99.90
62991;DHT22;49084;48.204;16.202;2024-01-30T04:49:40;-0.80;99.90
62991;DHT22;49084;48.204;16.202;2024-01-30T04:52:06;-0.90;99.90
62991;DHT22;49084;48.204;16.202;2024-01-30T04:54:33;-0.70;99.90
62991;DHT22;49084;48.204;16.202;2024-01-30T04:56:58;-0.90;99.90
62991;DHT22;49084;48.204;16.202;2024-01-30T04:59:24;-0.90;99.90
62991;DHT22;49084;48.204;16.202;2024-01-30T05:01:50;-0.90;99.90
62991;DHT22;49084;48.204;16.202;2024-01-30T05:04:15;-0.90;99.90
62991;DHT22;49084;48.204;16.202;2024-01-30T05:06:41;-1.00;99.90
62991;DHT22;49084;48.204;16.202;2024-01-30T05:09:07;-0.80;99.90
62991;DHT22;49084;48.204;16.202;2024-01-30T05:11:40;-0.90;99.90
62991;DHT22;49084;48.204;16.202;2024-01-30T05:14:06;-0.90;99.90
62991;DHT22;49084;48.204;16.202;2024-01-30T05:16:32;-1.10;99.90
62991;DHT22;49084;48.204;16.202;2024-01-30T05:18:58;-1.20;99.90
62991;DHT22;49084;48.204;16.202;2024-01-30T05:21:24;-1.20;99.90
62991;DHT22;49084;48.204;16.202;2024-01-30T05:23:50;-1.30;99.90
62991;DHT22;49084;48.204;16.202;2024-01-30T05:26:16;-1.40;99.90
62991;DHT22;49084;48.204;16.202;2024-01-30T05:28:42;-1.40;99.90
62991;DHT22;49084;48.204;16.202;2024-01-30T05:31:10;-0.80;99.90
62991;DHT22;49084;48.204;16.202;2024-01-30T05:33:35;-1.40;99.90
62991;DHT22;49084;48.204;16.202;2024-01-30T05:36:02;-1.40;99.90
62991;DHT22;49084;48.204;16.202;2024-01-30T05:38:30;-1.50;99.90
62991;DHT22;49084;48.204;16.202;2024-01-30T05:40:57;-1.50;99.90
62991;DHT22;49084;48.204;16.202;2024-01-30T05:43:26;-1.50;99.90
62991;DHT22;49084;48.204;16.202;2024-01-30T05:45:52;-1.30;99.90
62991;DHT22;49084;48.204;16.202;2024-01-30T05:48:18;-1.60;99.90
62991;DHT22;49084;48.204;16.202;2024-01-30T05:50:43;-1.50;99.90
62991;DHT22;49084;48.204;16.202;2024-01-30T05:53:10;-1.60;99.90
62991;DHT22;49084;48.204;16.202;2024-01-30T05:55:36;-1.60;99.90
62991;DHT22;49084;48.204;16.202;2024-01-30T05:58:01;-1.50;99.90
62991;DHT22;49084;48.204;16.202;2024-01-30T06:00:27;-1.60;99.90
62991;DHT22;49084;48.204;16.202;2024-01-30T06:02:53;-1.60;99.90
62991;DHT22;49084;48.204;16.202;2024-01-30T06:05:18;-1.60;99.90
62991;DHT22;49084;48.204;16.202;2024-01-30T06:07:44;-1.60;99.90
62991;DHT22;49084;48.204;16.202;2024-01-30T06:10:09;-1.70;99.90
62991;DHT22;49084;48.204;16.202;2024-01-30T06:12:35;-1.70;99.90
62991;DHT22;49084;48.204;16.202;2024-01-30T06:15:02;-1.50;99.90
62991;DHT22;49084;48.204;16.202;2024-01-30T06:17:28;-1.70;99.90
62991;DHT22;49084;48.204;16.202;2024-01-30T06:19:53;-1.70;99.90
62991;DHT22;49084;48.204;16.202;2024-01-30T06:22:19;-1.70;99.90
62991;DHT22;49084;48.204;16.202;2024-01-30T06:24:45;-1.70;99.90
62991;DHT22;49084;48.204;16.202;2024-01-30T06:27:13;-1.70;99.90
62991;DHT22;49084;48.204;16.202;2024-01-30T06:29:40;-1.70;99.90
62991;DHT22;49084;48.204;16.202;2024-01-30T06:32:06;-1.70;99.90
62991;DHT22;49084;48.204;16.202;2024-01-30T06:34:31;-1.70;99.90
62991;DHT22;49084;48.204;16.202;2024-01-30T06:36:57;-0.80;99.90
62991;DHT22;49084;48.204;16.202;2024-01-30T06:39:23;-1.90;99.90
62991;DHT22;49084;48.204;16.202;2024-01-30T06:41:48;-1.80;99.90
62991;DHT22;49084;48.204;16.202;2024-01-30T06:44:14;-1.80;99.90
62991;DHT22;49084;48.204;16.202;2024-01-30T06:46:40;-1.70;99.90
62991;DHT22;49084;48.204;16.202;2024-01-30T06:49:06;-1.80;99.90
62991;DHT22;49084;48.204;16.202;2024-01-30T06:51:31;-1.70;99.90
62991;DHT22;49084;48.204;16.202;2024-01-30T06:53:57;-1.70;99.90
62991;DHT22;49084;48.204;16.202;2024-01-30T06:56:23;-1.70;99.90
62991;DHT22;49084;48.204;16.202;2024-01-30T06:58:50;-1.70;99.90
62991;DHT22;49084;48.204;16.202;2024-01-30T07:01:15;-1.70;99.90
62991;DHT22;49084;48.204;16.202;2024-01-30T07:03:42;-1.70;99.90
62991;DHT22;49084;48.204;16.202;2024-01-30T07:06:08;-1.50;99.90
62991;DHT22;49084;48.204;16.202;2024-01-30T07:08:34;-1.60;99.90
62991;DHT22;49084;48.204;16.202;2024-01-30T07:11:00;-1.70;99.90
62991;DHT22;49084;48.204;16.202;2024-01-30T07:13:27;-1.70;99.90
62991;DHT22;49084;48.204;16.202;2024-01-30T07:15:53;-1.60;99.90
62991;DHT22;49084;48.204;16.202;2024-01-30T07:18:19;-1.50;99.90
62991;DHT22;49084;48.204;16.202;2024-01-30T07:20:45;-1.50;99.90
62991;DHT22;49084;48.204;16.202;2024-01-30T07:23:15;-1.30;99.90
62991;DHT22;49084;48.204;16.202;2024-01-30T07:25:43;-1.10;99.90
62991;DHT22;49084;48.204;16.202;2024-01-30T07:28:09;-0.90;99.90
62991;DHT22;49084;48.204;16.202;2024-01-30T07:30:36;-0.80;99.90
62991;DHT22;49084;48.204;16.202;2024-01-30T07:33:01;-0.60;99.90
62991;DHT22;49084;48.204;16.202;2024-01-30T07:35:27;-0.30;99.90
62991;DHT22;49084;48.204;16.202;2024-01-30T07:37:53;-0.10;99.90
62991;DHT22;49084;48.204;16.202;2024-01-30T07:40:18;0.20;99.90
62991;DHT22;49084;48.204;16.202;2024-01-30T07:42:44;0.30;99.90
62991;DHT22;49084;48.204;16.202;2024-01-30T07:45:10;0.50;99.90
62991;DHT22;49084;48.204;16.202;2024-01-30T07:47:36;0.60;99.90
62991;DHT22;49084;48.204;16.202;2024-01-30T07:50:01;0.80;99.90
62991;DHT22;49084;48.204;16.202;2024-01-30T07:52:27;1.10;99.90
62991;DHT22;49084;48.204;16.202;2024-01-30T07:58:12;1.70;99.90
62991;DHT22;49084;48.204;16.202;2024-01-30T08:00:37;1.80;99.90
62991;DHT22;49084;48.204;16.202;2024-01-30T08:03:04;1.90;99.90
62991;DHT22;49084;48.204;16.202;2024-01-30T08:05:30;2.10;99.90
62991;DHT22;49084;48.204;16.202;2024-01-30T08:07:56;2.20;99.90
62991;DHT22;49084;48.204;16.202;2024-01-30T08:10:21;2.40;99.90
62991;DHT22;49084;48.204;16.202;2024-01-30T08:12:47;2.70;99.90
62991;DHT22;49084;48.204;16.202;2024-01-30T08:15:13;2.90;99.90
62991;DHT22;49084;48.204;16.202;2024-01-30T08:17:38;3.20;99.90
62991;DHT22;49084;48.204;16.202;2024-01-30T08:20:05;3.50;99.90
62991;DHT22;49084;48.204;16.202;2024-01-30T08:22:31;3.80;99.90
62991;DHT22;49084;48.204;16.202;2024-01-30T08:24:56;4.30;99.90
62991;DHT22;49084;48.204;16.202;2024-01-30T08:27:22;4.60;99.90
62991;DHT22;49084;48.204;16.202;2024-01-30T08:29:47;4.90;99.90
62991;DHT22;49084;48.204;16.202;2024-01-30T08:32:13;5.10;99.90
62991;DHT22;49084;48.204;16.202;2024-01-30T08:34:39;5.40;99.90
62991;DHT22;49084;48.204;16.202;2024-01-30T08:37:04;5.50;99.90
62991;DHT22;49084;48.204;16.202;2024-01-30T08:39:30;5.90;99.90
62991;DHT22;49084;48.204;16.202;2024-01-30T08:41:56;6.30;99.90
62991;DHT22;49084;48.204;16.202;2024-01-30T08:44:22;6.60;99.90
62991;DHT22;49084;48.204;16.202;2024-01-30T08:46:47;6.90;99.90
62991;DHT22;49084;48.204;16.202;2024-01-30T08:49:16;7.30;99.90
62991;DHT22;49084;48.204;16.202;2024-01-30T08:51:42;7.70;99.90
62991;DHT22;49084;48.204;16.202;2024-01-30T08:54:07;8.00;99.90
62991;DHT22;49084;48.204;16.202;2024-01-30T08:56:33;8.30;99.90
62991;DHT22;49084;48.204;16.202;2024-01-30T08:58:59;8.80;99.70
62991;DHT22;49084;48.204;16.202;2024-01-30T09:01:25;9.30;98.20
62991;DHT22;49084;48.204;16.202;2024-01-30T09:03:51;9.90;95.80
62991;DHT22;49084;48.204;16.202;2024-01-30T09:06:16;10.00;93.70
62991;DHT22;49084;48.204;16.202;2024-01-30T09:08:42;10.30;93.20
62991;DHT22;49084;48.204;16.202;2024-01-30T09:11:14;10.30;92.60
62991;DHT22;49084;48.204;16.202;2024-01-30T09:13:40;10.60;91.80
62991;DHT22;49084;48.204;16.202;2024-01-30T09:16:06;11.00;90.40
62991;DHT22;49084;48.204;16.202;2024-01-30T09:18:32;11.10;89.50
62991;DHT22;49084;48.204;16.202;2024-01-30T09:20:58;11.40;87.70
62991;DHT22;49084;48.204;16.202;2024-01-30T09:23:24;11.80;83.30
62991;DHT22;49084;48.204;16.202;2024-01-30T09:25:50;12.00;81.80
62991;DHT22;49084;48.204;16.202;2024-01-30T09:28:17;12.30;80.60
62991;DHT22;49084;48.204;16.202;2024-01-30T09:30:43;12.40;78.70
62991;DHT22;49084;48.204;16.202;2024-01-30T09:33:08;12.10;77.60
62991;DHT22;49084;48.204;16.202;2024-01-30T09:35:34;11.50;79.20
62991;DHT22;49084;48.204;16.202;2024-01-30T09:38:00;11.70;79.20
62991;DHT22;49084;48.204;16.202;2024-01-30T09:40:25;12.20;77.90
62991;DHT22;49084;48.204;16.202;2024-01-30T09:42:51;12.50;76.10
62991;DHT22;49084;48.204;16.202;2024-01-30T09:45:18;12.70;74.40
62991;DHT22;49084;48.204;16.202;2024-01-30T09:47:45;12.60;74.40
62991;DHT22;49084;48.204;16.202;2024-01-30T09:50:12;12.50;73.60
62991;DHT22;49084;48.204;16.202;2024-01-30T09:52:38;11.80;74.20
62991;DHT22;49084;48.204;16.202;2024-01-30T09:55:05;11.90;75.50
62991;DHT22;49084;48.204;16.202;2024-01-30T09:57:31;12.60;74.00
62991;DHT22;49084;48.204;16.202;2024-01-30T09:59:57;13.30;72.00
62991;DHT22;49084;48.204;16.202;2024-01-30T10:02:23;13.80;68.70
62991;DHT22;49084;48.204;16.202;2024-01-30T10:04:50;14.00;68.50
62991;DHT22;49084;48.204;16.202;2024-01-30T10:07:19;14.00;66.50
62991;DHT22;49084;48.204;16.202;2024-01-30T10:09:46;13.30;68.80
62991;DHT22;49084;48.204;16.202;2024-01-30T10:12:12;13.50;68.10
62991;DHT22;49084;48.204;16.202;2024-01-30T10:14:42;13.60;67.10
62991;DHT22;49084;48.204;16.202;2024-01-30T10:17:09;13.50;67.80
62991;DHT22;49084;48.204;16.202;2024-01-30T10:19:36;13.40;67.30
62991;DHT22;49084;48.204;16.202;2024-01-30T10:22:03;13.70;66.30
62991;DHT22;49084;48.204;16.202;2024-01-30T10:24:28;13.80;66.30
62991;DHT22;49084;48.204;16.202;2024-01-30T10:26:57;13.70;65.40
62991;DHT22;49084;48.204;16.202;2024-01-30T10:29:23;13.70;65.80
62991;DHT22;49084;48.204;16.202;2024-01-30T10:32:02;13.60;65.40
62991;DHT22;49084;48.204;16.202;2024-01-30T10:34:28;13.60;65.90
62991;DHT22;49084;48.204;16.202;2024-01-30T10:37:10;13.70;64.50
62991;DHT22;49084;48.204;16.202;2024-01-30T10:39:41;13.60;65.60
62991;DHT22;49084;48.204;16.202;2024-01-30T10:42:12;13.10;64.80
62991;DHT22;49084;48.204;16.202;2024-01-30T10:45:00;12.40;66.20
62991;DHT22;49084;48.204;16.202;2024-01-30T10:47:29;12.00;68.20
62991;DHT22;49084;48.204;16.202;2024-01-30T10:49:56;11.90;69.20
62991;DHT22;49084;48.204;16.202;2024-01-30T10:52:23;11.80;69.10
62991;DHT22;49084;48.204;16.202;2024-01-30T10:54:51;11.80;69.50
62991;DHT22;49084;48.204;16.202;2024-01-30T10:57:17;11.80;68.90
62991;DHT22;49084;48.204;16.202;2024-01-30T10:59:44;12.10;68.30
62991;DHT22;49084;48.204;16.202;2024-01-30T11:02:10;12.50;68.10
62991;DHT22;49084;48.204;16.202;2024-01-30T11:04:37;12.50;67.30
62991;DHT22;49084;48.204;16.202;2024-01-30T11:07:14;12.80;66.60
62991;DHT22;49084;48.204;16.202;2024-01-30T11:09:41;13.50;66.00
62991;DHT22;49084;48.204;16.202;2024-01-30T11:12:12;14.10;63.50
62991;DHT22;49084;48.204;16.202;2024-01-30T11:14:38;14.90;62.90
62991;DHT22;49084;48.204;16.202;2024-01-30T11:17:05;14.40;60.10
62991;DHT22;49084;48.204;16.202;2024-01-30T11:19:32;14.50;60.90
62991;DHT22;49084;48.204;16.202;2024-01-30T11:21:58;15.20;60.50
62991;DHT22;49084;48.204;16.202;2024-01-30T11:24:25;15.40;58.40
62991;DHT22;49084;48.204;16.202;2024-01-30T11:26:57;14.10;60.90
62991;DHT22;49084;48.204;16.202;2024-01-30T11:29:28;14.40;61.60
62991;DHT22;49084;48.204;16.202;2024-01-30T11:31:58;14.10;60.50
62991;DHT22;49084;48.204;16.202;2024-01-30T11:34:24;14.40;61.20
62991;DHT22;49084;48.204;16.202;2024-01-30T11:37:01;14.80;59.50
62991;DHT22;49084;48.204;16.202;2024-01-30T11:39:31;15.00;58.90
62991;DHT22;49084;48.204;16.202;2024-01-30T11:41:59;14.80;59.10
62991;DHT22;49084;48.204;16.202;2024-01-30T11:44:24;15.20;58.10
62991;DHT22;49084;48.204;16.202;2024-01-30T11:46:51;14.90;58.80
62991;DHT22;49084;48.204;16.202;2024-01-30T11:49:17;15.10;57.80
62991;DHT22;49084;48.204;16.202;2024-01-30T11:51:45;15.10;58.30
62991;DHT22;49084;48.204;16.202;2024-01-30T11:54:11;15.20;57.10
62991;DHT22;49084;48.204;16.202;2024-01-30T11:56:37;14.50;58.10
62991;DHT22;49084;48.204;16.202;2024-01-30T11:59:04;15.10;57.50
62991;DHT22;49084;48.204;16.202;2024-01-30T12:01:31;15.70;56.40
62991;DHT22;49084;48.204;16.202;2024-01-30T12:03:58;14.70;57.20
62991;DHT22;49084;48.204;16.202;2024-01-30T12:06:24;14.30;58.40
62991;DHT22;49084;48.204;16.202;2024-01-30T12:09:00;14.10;58.80
62991;DHT22;49084;48.204;16.202;2024-01-30T12:11:27;13.80;59.60
62991;DHT22;49084;48.204;16.202;2024-01-30T12:13:53;14.30;59.70
62991;DHT22;49084;48.204;16.202;2024-01-30T12:16:19;14.80;58.90
62991;DHT22;49084;48.204;16.202;2024-01-30T12:18:45;15.40;56.40
62991;DHT22;49084;48.204;16.202;2024-01-30T12:21:11;14.90;56.60
62991;DHT22;49084;48.204;16.202;2024-01-30T12:23:37;15.40;56.90
62991;DHT22;49084;48.204;16.202;2024-01-30T12:26:03;15.70;56.50
62991;DHT22;49084;48.204;16.202;2024-01-30T12:28:32;16.40;55.60
62991;DHT22;49084;48.204;16.202;2024-01-30T12:31:04;16.80;54.10
62991;DHT22;49084;48.204;16.202;2024-01-30T12:33:30;16.30;55.00
62991;DHT22;49084;48.204;16.202;2024-01-30T12:35:57;16.80;54.70
62991;DHT22;49084;48.204;16.202;2024-01-30T12:38:27;16.90;53.70
62991;DHT22;49084;48.204;16.202;2024-01-30T12:40:55;16.80;54.00
62991;DHT22;49084;48.204;16.202;2024-01-30T12:43:22;16.40;54.20
62991;DHT22;49084;48.204;16.202;2024-01-30T12:45:48;16.30;55.10
62991;DHT22;49084;48.204;16.202;2024-01-30T12:48:14;16.70;54.40
62991;DHT22;49084;48.204;16.202;2024-01-30T12:50:39;16.80;53.70
62991;DHT22;49084;48.204;16.202;2024-01-30T12:53:05;16.80;54.20
62991;DHT22;49084;48.204;16.202;2024-01-30T12:55:31;16.20;54.30
62991;DHT22;49084;48.204;16.202;2024-01-30T12:57:57;15.20;55.10
62991;DHT22;49084;48.204;16.202;2024-01-30T13:00:22;16.30;54.90
62991;DHT22;49084;48.204;16.202;2024-01-30T13:02:48;16.30;54.90
62991;DHT22;49084;48.204;16.202;2024-01-30T13:05:14;15.60;55.20
62991;DHT22;49084;48.204;16.202;2024-01-30T13:07:39;14.40;57.30
62991;DHT22;49084;48.204;16.202;2024-01-30T13:10:05;13.90;58.80
62991;DHT22;49084;48.204;16.202;2024-01-30T13:12:31;13.30;59.80
62991;DHT22;49084;48.204;16.202;2024-01-30T13:14:58;13.20;60.50
62991;DHT22;49084;48.204;16.202;2024-01-30T13:17:26;13.30;60.50
62991;DHT22;49084;48.204;16.202;2024-01-30T13:19:52;13.20;61.30
62991;DHT22;49084;48.204;16.202;2024-01-30T13:22:19;13.00;62.00
62991;DHT22;49084;48.204;16.202;2024-01-30T13:24:47;13.10;61.70
62991;DHT22;49084;48.204;16.202;2024-01-30T13:27:13;13.40;61.50
62991;DHT22;49084;48.204;16.202;2024-01-30T13:29:38;13.50;61.50
62991;DHT22;49084;48.204;16.202;2024-01-30T13:32:04;13.80;61.00
62991;DHT22;49084;48.204;16.202;2024-01-30T13:34:30;14.00;60.00
62991;DHT22;49084;48.204;16.202;2024-01-30T13:36:56;13.90;60.30
62991;DHT22;49084;48.204;16.202;2024-01-30T13:39:22;14.30;59.90
62991;DHT22;49084;48.204;16.202;2024-01-30T13:41:48;13.90;60.20
62991;DHT22;49084;48.204;16.202;2024-01-30T13:44:15;13.80;60.60
62991;DHT22;49084;48.204;16.202;2024-01-30T13:46:42;13.80;60.40
62991;DHT22;49084;48.204;16.202;2024-01-30T13:49:07;13.50;60.80
62991;DHT22;49084;48.204;16.202;2024-01-30T13:51:33;13.60;61.30
62991;DHT22;49084;48.204;16.202;2024-01-30T13:53:59;13.60;61.50
62991;DHT22;49084;48.204;16.202;2024-01-30T13:56:25;13.40;61.10
62991;DHT22;49084;48.204;16.202;2024-01-30T13:58:52;13.10;61.90
62991;DHT22;49084;48.204;16.202;2024-01-30T14:01:17;12.40;63.40
62991;DHT22;49084;48.204;16.202;2024-01-30T14:03:43;11.80;65.00
62991;DHT22;49084;48.204;16.202;2024-01-30T14:06:09;11.20;66.40
62991;DHT22;49084;48.204;16.202;2024-01-30T14:08:34;10.60;68.30
62991;DHT22;49084;48.204;16.202;2024-01-30T14:11:00;10.40;69.30
62991;DHT22;49084;48.204;16.202;2024-01-30T14:13:26;9.90;70.60
62991;DHT22;49084;48.204;16.202;2024-01-30T14:15:52;9.70;71.80
62991;DHT22;49084;48.204;16.202;2024-01-30T14:18:18;11.20;73.60
62991;DHT22;49084;48.204;16.202;2024-01-30T14:20:43;9.20;73.60
62991;DHT22;49084;48.204;16.202;2024-01-30T14:23:09;9.00;74.90
62991;DHT22;49084;48.204;16.202;2024-01-30T14:25:35;8.80;75.60
62991;DHT22;49084;48.204;16.202;2024-01-30T14:28:00;8.60;76.60
62991;DHT22;49084;48.204;16.202;2024-01-30T14:30:26;8.50;77.30
62991;DHT22;49084;48.204;16.202;2024-01-30T14:32:53;8.30;78.70
62991;DHT22;49084;48.204;16.202;2024-01-30T14:35:19;8.10;79.40
62991;DHT22;49084;48.204;16.202;2024-01-30T14:37:45;7.90;80.80
62991;DHT22;49084;48.204;16.202;2024-01-30T14:40:11;7.80;81.50
62991;DHT22;49084;48.204;16.202;2024-01-30T14:42:37;7.70;82.80
62991;DHT22;49084;48.204;16.202;2024-01-30T14:45:04;7.60;84.10
62991;DHT22;49084;48.204;16.202;2024-01-30T14:47:29;7.40;85.10
62991;DHT22;49084;48.204;16.202;2024-01-30T14:49:56;7.30;86.50
62991;DHT22;49084;48.204;16.202;2024-01-30T14:52:22;7.20;87.70
62991;DHT22;49084;48.204;16.202;2024-01-30T14:54:48;7.10;89.00
62991;DHT22;49084;48.204;16.202;2024-01-30T14:57:13;7.00;90.10
62991;DHT22;49084;48.204;16.202;2024-01-30T14:59:40;6.90;91.00
62991;DHT22;49084;48.204;16.202;2024-01-30T15:02:06;6.70;91.80
62991;DHT22;49084;48.204;16.202;2024-01-30T15:04:32;6.60;92.30
62991;DHT22;49084;48.204;16.202;2024-01-30T15:06:57;6.50;93.10
62991;DHT22;49084;48.204;16.202;2024-01-30T15:09:23;6.50;93.80
62991;DHT22;49084;48.204;16.202;2024-01-30T15:11:52;6.40;94.40
62991;DHT22;49084;48.204;16.202;2024-01-30T15:14:17;6.40;94.90
62991;DHT22;49084;48.204;16.202;2024-01-30T15:16:43;6.30;95.60